Tiempo atmosférico en la estación meteorológica de Pedraza de Alba, Salamanca (897 m.)



Fecha
DESCASC
Temp. máxima en grados centígrados (hora)
DESCASC
Temp. mínima en grados centígrados (hora)
DESCASC
Temp. media en grados centígrados
DESCASC
Racha de viento máxima en m/sg (hora)
DESCASC
Velocidad máxima media en intervalos de 10 minutos(hora)
DESCASC
Precipitaciones diarias en mm
DESCASC
Precipitaciones de 00:00 a 06:00 en mm
DESCASC
Precipitaciones de 06:00 a 12:00 en mm
DESCASC
Precipitaciones de 12:00 a 18:00 en mm
DESCASC
Precipitaciones de 18:00 a 24:00 en mm
DESCASC
19-05-2019 17.5 (18:00) 2.9 (07:50) 10.2 7.78 (17:00) 3.89 (18:20) 0 0 0 0 0
18-05-2019 15.1 (18:40) 2.3 (07:10) 8.7 9.17 (18:10) 4.44 (17:00) 0 0 0 0 0
17-05-2019 14.9 (17:30) 5.7 (07:20) 10.3 12.5 (12:00) 6.67 (12:30) 0 0 0 0 0
16-05-2019 24.6 (14:30) 8.5 (00:00) 16.6 12.78 (20:20) 6.67 (20:20) 1.2 0 0 0 1.2
15-05-2019 29 (15:20) 7.8 (00:00) 18.4 7.5 (16:00) 4.17 (18:20) 0 0 0 0 0
14-05-2019 27.7 (17:50) 1.4 (00:00) 14.6 7.78 (17:20) 3.89 (17:10) 0 0 0 0 0
13-05-2019 25.7 (19:00) 0.1 (00:00) 12.9 7.5 (14:20) 4.17 (15:00) 0 0 0 0 0
12-05-2019 24.8 (17:40) 3.5 (00:00) 14.1 9.44 (13:00) 5 (12:20) 0 0 0 0 0
11-05-2019 22.7 (17:50) 3.6 (00:00) 13.2 6.94 (18:40) 3.61 (14:50) 0 0 0 0 0
10-05-2019 21.1 (17:30) 12.4 (00:00) 16.8 12.22 (13:30) 7.22 (13:10) 0.2 0.2 0 0 0
09-05-2019 18.1 (16:10) 3.3 (00:00) 10.7 14.72 (17:50) 8.33 (16:40) 0 0 0 0 0
08-05-2019 17.6 (17:30) 8.1 (00:00) 12.9 16.39 (16:20) 9.17 (16:30) 0.2 0 0.2 0 0
07-05-2019 18.9 (15:50) 5.6 (00:00) 12.2 12.22 (14:50) 6.94 (17:10) 0 0 0 0 0
06-05-2019 21.6 (17:30) 4.2 (00:00) 12.9 10 (15:30) 5.83 (18:10) 0 0 0 0 0
05-05-2019 19.4 (19:00) 3.8 (00:00) 11.6 6.39 (01:10) 3.89 (09:10) 0 0 0 0 0
04-05-2019 20 (18:40) -0.1 (00:00) 9.9 6.94 (14:50) 3.89 (18:10) 0 0 0 0 0
03-05-2019 16.6 (17:10) 1.8 (00:00) 9.2 9.17 (14:00) 5.28 (13:00) 0 0 0 0 0
02-05-2019 21.1 (17:40) 4.1 (07:30) 12.6 7.22 (17:50) 3.89 (17:50) 0 0 0 0 0
01-05-2019 23.3 (18:10) 6.9 (00:00) 15.1 8.06 (14:30) 3.89 (19:30) 0 0 0 0 0
30-04-2019 23.1 (17:40) 7.6 (00:00) 15.4 5.83 (15:30) 2.78 (15:30) 0 0 0 0 0
29-04-2019 23 (18:20) 4.4 (00:00) 13.7 5.28 (14:30) 2.78 (19:00) 0 0 0 0 0
28-04-2019 21.1 (18:10) 2.8 (00:00) 12 7.5 (14:00) 3.61 (13:00) 0 0 0 0 0
27-04-2019 18.5 (17:40) 0.9 (00:00) 9.7 5.83 (18:40) 3.33 (16:50) 0 0 0 0 0
26-04-2019 13.4 (18:20) 4.7 (00:00) 9 8.89 (13:30) 4.44 (01:30) 0 0 0 0 0
25-04-2019 9.1 (16:20) 2.7 (00:00) 5.9 12.78 (13:40) 6.67 (14:50) 11.2 4 4.2 2.4 0.6
24-04-2019 12.9 (15:50) 1.4 (00:00) 7.1 20.83 (13:20) 11.11 (13:20) 11.4 2 1 0.4 8
23-04-2019 11.1 (00:00) 2.2 (00:00) 6.7 12.78 (15:50) 7.78 (15:50) 7.2 0.6 1.8 0.4 4.4

Gráficas

Temp. máximas Temp. mínimas Temp. medias Precipitaciones Rachas de viento máximas Velocidades máximas media en intervalos de 10 minutos

Datos horarios

Fecha y hora oficial Temperatura (ºC) Velocidad del viento (km/h) Dirección del viento Racha (km/h) Dirección de racha Precipitación (mm) Presión (hPa) Tendencia (hPa) Humedad (%)
2019-05-22 23:00:00 16.6 5 Sudoeste 10 Sudoeste 0 -- -- 43
2019-05-22 22:00:00 19.1 6 Sudoeste 14 Sudoeste 0 -- -- 36
2019-05-22 21:00:00 21.6 5 Oeste 23 Oeste 0 -- -- 34
2019-05-22 20:00:00 24.6 11 Oeste 22 Oeste 0 -- -- 27
2019-05-22 19:00:00 23.9 8 Noroeste 26 Oeste 0 -- -- 28
2019-05-22 18:00:00 25.4 13 Oeste 26 Sudoeste 0 -- -- 24
2019-05-22 17:00:00 25 12 Oeste 28 Sudoeste 0 -- -- 25
2019-05-22 16:00:00 24.7 8 Sudoeste 44 Oeste 0 -- -- 24
2019-05-22 15:00:00 24.3 8 Noroeste 18 Oeste 0 -- -- 25
2019-05-22 14:00:00 23.6 11 Oeste 20 Sudoeste 0 -- -- 26
2019-05-22 13:00:00 22.8 10 Norte 19 Norte 0 -- -- 27
2019-05-22 12:00:00 21.5 6 Nordeste 15 Nordeste 0 -- -- 29
2019-05-22 11:00:00 18.9 4 Norte 8 Nordeste 0 -- -- 37
2019-05-22 10:00:00 15.7 0 Calma 7 Este 0 -- -- 46
2019-05-22 09:00:00 11.4 2 Este 6 Sudeste 0 -- -- 60
2019-05-22 08:00:00 6.7 2 Sur 8 Sur 0 -- -- 75
2019-05-22 07:00:00 4.5 3 Sur 18 Norte 0 -- -- 77
2019-05-22 06:00:00 5.3 3 Sur 5 Sur 0 -- -- 74
2019-05-22 05:00:00 6.8 2 Sur 4 Sudoeste 0 -- -- 67
2019-05-22 04:00:00 9.1 4 Sur 8 Sur 0 -- -- 59
2019-05-22 03:00:00 8.6 0 Calma 4 Norte 0 -- -- 62
2019-05-22 02:00:00 10.4 3 Sur 5 Sudeste 0 -- -- 55
2019-05-22 01:00:00 8.7 2 Sur 6 Nordeste 0 -- -- 60
2019-05-22 00:00:00 9.4 4 Sur 5 Sudeste 0 -- -- 55
2019-05-21 23:00:00 11.2 4 Sur 5 Sur 0 -- -- 50
2019-05-21 22:00:00 16.4 0 Calma 12 Norte 0 -- -- 38
2019-05-21 21:00:00 19.3 9 Norte 19 Noroeste 0 -- -- 32
2019-05-21 20:00:00 21.3 11 Norte 21 Norte 0 -- -- 28
2019-05-21 19:00:00 22 10 Noroeste 24 Noroeste 0 -- -- 28
2019-05-21 18:00:00 22 7 Nordeste 24 Norte 0 -- -- 28
2019-05-21 17:00:00 20.4 7 Norte 24 Noroeste 0 -- -- 31
2019-05-21 16:00:00 21.1 9 Oeste 22 Noroeste 0 -- -- 32
2019-05-21 15:00:00 20.4 5 Sudoeste 19 Norte 0 -- -- 33
2019-05-21 14:00:00 19.6 8 Norte 21 Norte 0 -- -- 35
2019-05-21 13:00:00 18.6 7 Noroeste 21 Noroeste 0 -- -- 39
2019-05-21 12:00:00 17.8 4 Este 13 Este 0 -- -- 39
2019-05-21 11:00:00 15.8 4 Norte 12 Norte 0 -- -- 46
2019-05-21 10:00:00 13.2 2 Sur 10 Sudoeste 0 -- -- 57
2019-05-21 09:00:00 10.6 5 Sudoeste 11 Sudoeste 0 -- -- 69
2019-05-21 08:00:00 6 2 Sudeste 6 Sudeste 0 -- -- 81
2019-05-21 07:00:00 3.7 4 Sur 5 Sur 0 -- -- 81
2019-05-21 06:00:00 3.9 3 Sur 4 Sur 0 -- -- 77
2019-05-21 05:00:00 4.7 3 Sur 5 Sur 0 -- -- 74
2019-05-21 04:00:00 5.6 3 Sur 9 Sudeste 0 -- -- 69
2019-05-21 03:00:00 5.8 3 Sur 4 Sur 0 -- -- 66
2019-05-21 02:00:00 8.3 2 Sur 5 Sudeste 0 -- -- 57
2019-05-21 01:00:00 11.5 3 Sudoeste 4 Sudoeste 0 -- -- 49
2019-05-21 00:00:00 13.3 3 Oeste 6 Oeste 0 -- -- 43
2019-05-20 23:00:00 13.6 3 Sudoeste 9 Oeste 0 -- -- 43
2019-05-20 22:00:00 14.5 5 Oeste 17 Noroeste 0 -- -- 39
2019-05-20 21:00:00 15.6 10 Noroeste 25 Oeste 0 -- -- 37
2019-05-20 20:00:00 17.4 10 Oeste 23 Oeste 0 -- -- 35
2019-05-20 19:00:00 19.1 12 Sudoeste 25 Oeste 0 -- -- 32
2019-05-20 18:00:00 18.7 7 Oeste 23 Noroeste 0 -- -- 35
2019-05-20 17:00:00 19 11 Sudoeste 27 Oeste 0 -- -- 31
2019-05-20 16:00:00 17.3 8 Noroeste 22 Sudoeste 0 -- -- 31
2019-05-20 15:00:00 16.5 7 Noroeste 24 Oeste 0 -- -- 36
2019-05-20 14:00:00 17.4 4 Sur 17 Sudoeste 0 -- -- 34
2019-05-20 13:00:00 15.5 4 Oeste 19 Noroeste 0 -- -- 36
2019-05-20 12:00:00 14.7 7 Oeste 20 Sudoeste 0 -- -- 40
2019-05-20 11:00:00 14.3 10 Noroeste 18 Noroeste 0 -- -- 43
2019-05-20 10:00:00 13 4 Nordeste 9 Nordeste 0 -- -- 44
2019-05-20 09:00:00 9 5 Sudoeste 9 Sudoeste 0 -- -- 58
2019-05-20 08:00:00 3.3 3 Sur 6 Sur 0 -- -- 73
2019-05-20 07:00:00 2.9 4 Sur 6 Sudeste 0 -- -- 74
2019-05-20 06:00:00 3.2 4 Sur 9 Sudeste 0 -- -- 69
2019-05-20 05:00:00 2.9 3 Sur 8 Sudeste 0 -- -- 63
2019-05-20 04:00:00 3 3 Sur 7 Sur 0 -- -- 59
2019-05-20 03:00:00 3.8 3 Sur 6 Sur 0 -- -- 55
2019-05-20 02:00:00 4.6 3 Sur 10 Sur 0 -- -- 50
2019-05-20 01:00:00 5.5 5 Sur 9 Sur 0 -- -- 46
2019-05-20 00:00:00 5.9 3 Sur 9 Sudeste 0 -- -- 45
2019-05-19 23:00:00 9.2 5 Sudoeste 14 Oeste 0 -- -- 37
2019-05-19 22:00:00 12.4 9 Oeste 16 Oeste 0 -- -- 28
2019-05-19 21:00:00 14.8 8 Noroeste 21 Noroeste 0 -- -- 24
2019-05-19 20:00:00 16.8 9 Noroeste 23 Oeste 0 -- -- 22
2019-05-19 19:00:00 17.4 9 Noroeste 26 Noroeste 0 -- -- 23
2019-05-19 18:00:00 17.5 10 Noroeste 26 Oeste 0 -- -- 24
2019-05-19 17:00:00 17.1 12 Noroeste 28 Oeste 0 -- -- 24
2019-05-19 16:00:00 16.5 8 Norte 22 Norte 0 -- -- 36
2019-05-19 15:00:00 15.5 9 Norte 22 Norte 0 -- -- 33
2019-05-19 14:00:00 14.2 8 Noroeste 27 Noroeste 0 -- -- 37
2019-05-19 13:00:00 12.6 8 Oeste 20 Noroeste 0 -- -- 45
2019-05-19 12:00:00 12.4 3 Norte 13 Norte 0 -- -- 47
2019-05-19 11:00:00 10.3 5 Norte 10 Nordeste 0 -- -- 55
2019-05-19 10:00:00 9.3 4 Nordeste 9 Nordeste 0 -- -- 60
2019-05-19 09:00:00 6.6 2 Norte 6 Norte 0 -- -- 72
2019-05-19 08:00:00 2.9 0 Calma 3 Sur 0 -- -- 83
2019-05-19 07:00:00 4.1 2 Sur 5 Sudeste 0 -- -- 79
2019-05-19 06:00:00 4.2 0 Calma 3 Sur 0 -- -- 78
2019-05-19 05:00:00 4.1 0 Calma 6 Sudeste 0 -- -- 76
2019-05-19 04:00:00 3.8 2 Sur 5 Sur 0 -- -- 73
2019-05-19 03:00:00 4.8 2 Sur 4 Sur 0 -- -- 69
2019-05-19 02:00:00 6.3 2 Sur 8 Oeste 0 -- -- 63
2019-05-19 01:00:00 8.4 4 Oeste 15 Sudoeste 0 -- -- 54
2019-05-19 00:00:00 8.7 6 Oeste 13 Sudoeste 0 -- -- 51
2019-05-18 23:00:00 8.1 6 Sudoeste 9 Sudoeste 0 -- -- 51
2019-05-18 22:00:00 10.1 6 Oeste 24 Noroeste 0 -- -- 45
2019-05-18 21:00:00 12.3 10 Noroeste 29 Oeste 0 -- -- 40
2019-05-18 20:00:00 13.8 13 Noroeste 30 Oeste 0 -- -- 36
2019-05-18 19:00:00 14.7 13 Noroeste 33 Oeste 0 -- -- 31
2019-05-18 18:00:00 14.4 15 Noroeste 30 Noroeste 0 -- -- 34
2019-05-18 17:00:00 13.5 16 Noroeste 28 Oeste 0 -- -- 37
2019-05-18 16:00:00 13.4 10 Oeste 23 Oeste 0 -- -- 37
2019-05-18 15:00:00 12.8 13 Noroeste 27 Noroeste 0 -- -- 40
2019-05-18 14:00:00 12.1 9 Noroeste 27 Oeste 0 -- -- 41
2019-05-18 13:00:00 11.5 11 Oeste 29 Noroeste 0 -- -- 46
2019-05-18 12:00:00 10.3 9 Norte 22 Oeste 0 -- -- 52
2019-05-18 11:00:00 8.3 11 Oeste 24 Sudoeste 0 -- -- 58
2019-05-18 10:00:00 6.7 9 Oeste 15 Oeste 0 -- -- 66
2019-05-18 09:00:00 5.2 4 Sudoeste 15 Sudoeste 0 -- -- 75
2019-05-18 08:00:00 3.7 6 Sudoeste 12 Sudoeste 0 -- -- 85
2019-05-18 07:00:00 2.4 4 Sudoeste 10 Sudoeste 0 -- -- 89
2019-05-18 06:00:00 3.7 6 Sudoeste 15 Oeste 0 -- -- 86
2019-05-18 05:00:00 5 5 Oeste 16 Oeste 0 -- -- 82
2019-05-18 04:00:00 5.7 5 Noroeste 14 Noroeste 0 -- -- 81
2019-05-18 03:00:00 5.2 5 Sudoeste 11 Sudoeste 0 -- -- 81
2019-05-18 02:00:00 5.8 4 Sudoeste 13 Noroeste 0 -- -- 76
2019-05-18 01:00:00 6.7 4 Oeste 10 Sudoeste 0 -- -- 72
2019-05-18 00:00:00 7.3 5 Oeste 19 Noroeste 0 -- -- 69
2019-05-17 23:00:00 8.3 10 Noroeste 24 Noroeste 0 -- -- 65
2019-05-17 22:00:00 9.9 12 Noroeste 35 Noroeste 0 -- -- 58
2019-05-17 21:00:00 11.6 14 Noroeste 31 Noroeste 0 -- -- 51
2019-05-17 20:00:00 13.7 17 Noroeste 39 Noroeste 0 -- -- 39
2019-05-17 19:00:00 14.1 15 Noroeste 36 Oeste 0 -- -- 37
2019-05-17 18:00:00 14.7 18 Noroeste 37 Oeste 0 -- -- 33
2019-05-17 17:00:00 13.7 19 Oeste 36 Oeste 0 -- -- 39
2019-05-17 16:00:00 13.4 18 Noroeste 41 Oeste 0 -- -- 45
2019-05-17 15:00:00 13.6 17 Noroeste 33 Noroeste 0 -- -- 46
2019-05-17 14:00:00 12.3 19 Noroeste 41 Noroeste 0 -- -- 52
2019-05-17 13:00:00 12.9 19 Noroeste 43 Oeste 0 -- -- 52
2019-05-17 12:00:00 11.6 21 Noroeste 45 Noroeste 0 -- -- 57
2019-05-17 11:00:00 10.3 18 Noroeste 39 Oeste 0 -- -- 64
2019-05-17 10:00:00 9.2 18 Noroeste 34 Noroeste 0 -- -- 70
2019-05-17 09:00:00 6.9 10 Oeste 27 Oeste 0 -- -- 80
2019-05-17 08:00:00 5.9 12 Oeste 23 Sudoeste 0 -- -- 82
2019-05-17 07:00:00 5.9 10 Oeste 27 Oeste 0 -- -- 84
2019-05-17 06:00:00 6 11 Sudoeste 28 Oeste 0 -- -- 83
2019-05-17 05:00:00 6.2 8 Oeste 23 Oeste 0 -- -- 83
2019-05-17 04:00:00 6.6 8 Oeste 30 Oeste 0 -- -- 80
2019-05-17 03:00:00 7.3 14 Oeste 32 Oeste 0 -- -- 80
2019-05-17 02:00:00 7.2 10 Oeste 24 Oeste 0 -- -- 85
2019-05-17 01:00:00 7.7 10 Oeste 25 Oeste 0 -- -- 82
2019-05-17 00:00:00 8.5 9 Oeste 31 Oeste 0 -- -- 82
2019-05-16 23:00:00 9.5 14 Oeste 36 Oeste 0 -- -- 80
2019-05-16 22:00:00 9.5 11 Oeste 44 Noroeste 1.2 -- -- 84
2019-05-16 21:00:00 13 23 Noroeste 46 Oeste 0 -- -- 64
2019-05-16 20:00:00 16.8 22 Oeste 41 Oeste 0 -- -- 44
2019-05-16 19:00:00 18.8 17 Oeste 40 Oeste 0 -- -- 37
2019-05-16 18:00:00 20 16 Noroeste 41 Oeste 0 -- -- 39
2019-05-16 17:00:00 20.8 17 Noroeste 41 Noroeste 0 -- -- 38
2019-05-16 16:00:00 21.5 22 Noroeste 44 Oeste 0 -- -- 41
2019-05-16 15:00:00 24.4 15 Oeste 32 Oeste 0 -- -- 25
2019-05-16 14:00:00 23.6 15 Oeste 34 Noroeste 0 -- -- 28
2019-05-16 13:00:00 23 14 Oeste 30 Oeste 0 -- -- 30
2019-05-16 12:00:00 22.1 14 Oeste 26 Sudoeste 0 -- -- 35
2019-05-16 11:00:00 20.3 11 Oeste 19 Oeste 0 -- -- 44
2019-05-16 10:00:00 18.3 10 Oeste 21 Oeste 0 -- -- 51
2019-05-16 09:00:00 17 8 Oeste 14 Sudoeste 0 -- -- 55
2019-05-16 08:00:00 11.6 3 Sur 6 Sudeste 0 -- -- 77
2019-05-16 07:00:00 11.8 5 Sudeste 9 Sudeste 0 -- -- 73
2019-05-16 06:00:00 13.2 3 Sur 7 Sudoeste 0 -- -- 67
2019-05-16 05:00:00 14.3 2 Sudoeste 13 Sudoeste 0 -- -- 65
2019-05-16 04:00:00 15.2 5 Sudoeste 11 Sudoeste 0 -- -- 62
2019-05-16 03:00:00 13.8 3 Sudeste 8 Sudeste 0 -- -- 66
2019-05-16 02:00:00 14.9 3 Sur 10 Sudoeste 0 -- -- 59
2019-05-16 01:00:00 14.9 5 Sur 12 Sudoeste 0 -- -- 57
2019-05-16 00:00:00 16.6 5 Sur 9 Sudeste 0 -- -- 52
2019-05-15 23:00:00 18.1 4 Sur 11 Noroeste 0 -- -- 48
2019-05-15 22:00:00 22.9 6 Noroeste 16 Noroeste 0 -- -- 36
2019-05-15 21:00:00 26.1 9 Noroeste 20 Noroeste 0 -- -- 26
2019-05-15 20:00:00 27.8 10 Norte 18 Norte 0 -- -- 22
2019-05-15 19:00:00 28.3 14 Norte 26 Norte 0 -- -- 21
2019-05-15 18:00:00 28.9 8 Norte 27 Norte 0 -- -- 20
2019-05-15 17:00:00 28.5 12 Norte 24 Norte 0 -- -- 21
2019-05-15 16:00:00 28.9 11 Norte 27 Norte 0 -- -- 20
2019-05-15 15:00:00 28.6 9 Norte 25 Norte 0 -- -- 23
2019-05-15 14:00:00 27.5 9 Norte 20 Norte 0 -- -- 24
2019-05-15 13:00:00 26.3 5 Noroeste 14 Noroeste 0 -- -- 29
2019-05-15 12:00:00 24.5 4 Sur 10 Oeste 0 -- -- 30
2019-05-15 11:00:00 22.1 3 Noroeste 13 Noroeste 0 -- -- 37
2019-05-15 10:00:00 19.7 7 Noroeste 12 Noroeste 0 -- -- 40
2019-05-15 09:00:00 13 0 Calma 5 Sur 0 -- -- 60
2019-05-15 08:00:00 7.8 2 Sur 4 Sur 0 -- -- 69
2019-05-15 07:00:00 9.5 0 Calma 9 Sur 0 -- -- 61
2019-05-15 06:00:00 9.7 6 Sur 12 Sudeste 0 -- -- 59
2019-05-15 05:00:00 10.1 5 Sur 9 Sur 0 -- -- 58
2019-05-15 04:00:00 10.8 6 Sur 10 Sur 0 -- -- 55
2019-05-15 03:00:00 10.7 6 Sur 10 Sudeste 0 -- -- 55
2019-05-15 02:00:00 11.1 5 Sur 9 Sur 0 -- -- 54
2019-05-15 01:00:00 10.9 4 Sur 9 Sur 0 -- -- 52
2019-05-15 00:00:00 12.1 6 Sur 9 Sur 0 -- -- 48
2019-05-14 23:00:00 13.7 4 Sur 7 Sur 0 -- -- 42
2019-05-14 22:00:00 18.6 2 Sur 9 Noroeste 0 -- -- 32
2019-05-14 21:00:00 24.3 5 Noroeste 16 Noroeste 0 -- -- 22
2019-05-14 20:00:00 26.5 10 Norte 17 Norte 0 -- -- 17
2019-05-14 19:00:00 27.4 10 Norte 22 Norte 0 -- -- 17
2019-05-14 18:00:00 27.7 8 Noroeste 28 Norte 0 -- -- 16
2019-05-14 17:00:00 26.9 11 Norte 27 Noroeste 0 -- -- 19
2019-05-14 16:00:00 26.1 8 Noroeste 23 Norte 0 -- -- 20
2019-05-14 15:00:00 24.8 6 Noroeste 21 Noroeste 0 -- -- 24
2019-05-14 14:00:00 23.1 7 Norte 17 Norte 0 -- -- 23
2019-05-14 13:00:00 21.1 6 Norte 15 Norte 0 -- -- 27
2019-05-14 12:00:00 19.1 6 Norte 13 Norte 0 -- -- 30
2019-05-14 11:00:00 16.1 5 Norte 10 Nordeste 0 -- -- 35
2019-05-14 10:00:00 12 3 Norte 8 Nordeste 0 -- -- 40
2019-05-14 09:00:00 6.9 2 Norte 4 Norte 0 -- -- 56
2019-05-14 08:00:00 2.5 0 Calma 4 Sur 0 -- -- 77
2019-05-14 07:00:00 1.5 3 Sudoeste 5 Sur 0 -- -- 73
2019-05-14 06:00:00 2.1 3 Sur 6 Sur 0 -- -- 70
2019-05-14 05:00:00 3.1 2 Sudoeste 5 Norte 0 -- -- 67
2019-05-14 04:00:00 4.4 4 Noroeste 6 Norte 0 -- -- 65
2019-05-14 03:00:00 5.1 0 Calma 3 Noroeste 0 -- -- 64
2019-05-14 02:00:00 7.7 0 Calma 6 Norte 0 -- -- 51
2019-05-14 01:00:00 9.1 2 Norte 8 Norte 0 -- -- 46
2019-05-14 00:00:00 12.6 0 Calma 8 Nordeste 0 -- -- 37
2019-05-13 23:00:00 15.3 2 Norte 4 Norte 0 -- -- 31
2019-05-13 22:00:00 18.1 4 Nordeste 17 Nordeste 0 -- -- 26
2019-05-13 21:00:00 22 10 Nordeste 21 Norte 0 -- -- 21
2019-05-13 20:00:00 24.6 14 Norte 24 Norte 0 -- -- 17
2019-05-13 19:00:00 25.7 13 Nordeste 26 Norte 0 -- -- 17
2019-05-13 18:00:00 25.5 14 Norte 26 Norte 0 -- -- 19
2019-05-13 17:00:00 24.9 12 Nordeste 22 Nordeste 0 -- -- 20
2019-05-13 16:00:00 23.9 13 Nordeste 24 Nordeste 0 -- -- 20
2019-05-13 15:00:00 22.9 15 Norte 27 Norte 0 -- -- 21
2019-05-13 14:00:00 21.5 12 Norte 24 Nordeste 0 -- -- 25
2019-05-13 13:00:00 19.6 13 Norte 22 Norte 0 -- -- 29
2019-05-13 12:00:00 17.4 10 Norte 21 Nordeste 0 -- -- 36
2019-05-13 11:00:00 15.6 10 Nordeste 16 Nordeste 0 -- -- 41
2019-05-13 10:00:00 11.8 8 Nordeste 14 Este 0 -- -- 51
2019-05-13 09:00:00 6.7 3 Nordeste 8 Nordeste 0 -- -- 68
2019-05-13 08:00:00 1.2 0 Calma 4 Sudeste 0 -- -- 85
2019-05-13 07:00:00 0.2 0 Calma 4 Sudeste 0 -- -- 79
2019-05-13 06:00:00 1 0 Calma 3 Noroeste 0 -- -- 74
2019-05-13 05:00:00 2 0 Calma 5 Sudeste 0 -- -- 70
2019-05-13 04:00:00 2.4 2 Sudeste 4 Sudeste 0 -- -- 66
2019-05-13 03:00:00 3.7 0 Calma 5 Este 0 -- -- 60
2019-05-13 02:00:00 6.2 0 Calma 3 Sudoeste 0 -- -- 54
2019-05-13 01:00:00 7.2 0 Calma 4 Norte 0 -- -- 47
2019-05-13 00:00:00 9.6 2 Sur 6 Nordeste 0 -- -- 41
2019-05-12 23:00:00 13.2 0 Calma 6 Nordeste 0 -- -- 30
2019-05-12 22:00:00 16.7 5 Nordeste 11 Norte 0 -- -- 22
2019-05-12 21:00:00 20.3 6 Norte 24 Nordeste 0 -- -- 18
2019-05-12 20:00:00 23.5 13 Nordeste 32 Norte 0 -- -- 14
2019-05-12 19:00:00 24.3 15 Nordeste 28 Norte 0 -- -- 14
2019-05-12 18:00:00 24.6 12 Nordeste 23 Nordeste 0 -- -- 12
2019-05-12 17:00:00 24.6 14 Nordeste 26 Norte 0 -- -- 11
2019-05-12 16:00:00 24.3 14 Nordeste 27 Norte 0 -- -- 11
2019-05-12 15:00:00 23.2 14 Nordeste 30 Nordeste 0 -- -- 14
2019-05-12 14:00:00 22.2 18 Nordeste 30 Nordeste 0 -- -- 15
2019-05-12 13:00:00 20.3 17 Nordeste 34 Nordeste 0 -- -- 19
2019-05-12 12:00:00 19.1 17 Nordeste 29 Nordeste 0 -- -- 21
2019-05-12 11:00:00 17.3 15 Nordeste 24 Nordeste 0 -- -- 27
2019-05-12 10:00:00 15.3 15 Nordeste 24 Nordeste 0 -- -- 29
2019-05-12 09:00:00 9.5 6 Nordeste 12 Norte 0 -- -- 53
2019-05-12 08:00:00 4.1 3 Norte 4 Norte 0 -- -- 73
2019-05-12 07:00:00 4.7 0 Calma 6 Nordeste 0 -- -- 66
2019-05-12 06:00:00 5.2 0 Calma 5 Norte 0 -- -- 61
2019-05-12 05:00:00 5.8 3 Norte 5 Norte 0 -- -- 62
2019-05-12 04:00:00 7.2 3 Norte 6 Norte 0 -- -- 58
2019-05-12 03:00:00 8.4 0 Calma 6 Nordeste 0 -- -- 53
2019-05-12 02:00:00 9.8 5 Nordeste 9 Nordeste 0 -- -- 51
2019-05-12 01:00:00 11.8 6 Este 14 Nordeste 0 -- -- 44
2019-05-12 00:00:00 12.1 6 Este 12 Este 0 -- -- 42
2019-05-11 23:00:00 13.7 8 Este 16 Nordeste 0 -- -- 40
2019-05-11 22:00:00 15.9 8 Nordeste 13 Nordeste 0 -- -- 37
2019-05-11 21:00:00 19.5 9 Nordeste 19 Nordeste 0 -- -- 28
2019-05-11 20:00:00 21.7 10 Norte 21 Norte 0 -- -- 28
2019-05-11 19:00:00 22.4 11 Nordeste 25 Norte 0 -- -- 22
2019-05-11 18:00:00 22.6 8 Nordeste 21 Norte 0 -- -- 23
2019-05-11 17:00:00 22.1 9 Nordeste 22 Nordeste 0 -- -- 24
2019-05-11 16:00:00 21.9 9 Nordeste 24 Norte 0 -- -- 28
2019-05-11 15:00:00 21.2 10 Nordeste 23 Nordeste 0 -- -- 28
2019-05-11 14:00:00 20.2 7 Norte 20 Norte 0 -- -- 32
2019-05-11 13:00:00 18.4 8 Nordeste 15 Nordeste 0 -- -- 44
2019-05-11 12:00:00 16.5 5 Oeste 15 Norte 0 -- -- 55
2019-05-11 11:00:00 14.5 7 Nordeste 15 Norte 0 -- -- 66
2019-05-11 10:00:00 12.9 4 Nordeste 10 Nordeste 0 -- -- 76
2019-05-11 09:00:00 9.1 0 Calma 4 Sudeste 0 -- -- 97
2019-05-11 08:00:00 4.2 3 Sur 4 Sur 0 -- -- 96
2019-05-11 07:00:00 3.7 0 Calma 5 Nordeste 0 -- -- 95
2019-05-11 06:00:00 5.2 0 Calma 4 Sudoeste 0 -- -- 91
2019-05-11 05:00:00 6.8 0 Calma 6 Sur 0 -- -- 89
2019-05-11 04:00:00 8 5 Sur 9 Sudeste 0 -- -- 89
2019-05-11 03:00:00 9.4 5 Sudeste 15 Sudoeste 0 -- -- 83
2019-05-11 02:00:00 10.9 9 Sudoeste 15 Sudoeste 0 -- -- 79
2019-05-11 01:00:00 10.2 4 Sudeste 9 Sudoeste 0 -- -- 83
2019-05-11 00:00:00 12.4 4 Sudoeste 9 Sudoeste 0 -- -- 77
2019-05-10 23:00:00 14.4 5 Oeste 13 Sudoeste 0 -- -- 70
2019-05-10 22:00:00 15.9 9 Sudoeste 16 Sudoeste 0 -- -- 64
2019-05-10 21:00:00 18 11 Sudoeste 30 Sudoeste 0 -- -- 57
2019-05-10 20:00:00 19.7 11 Oeste 29 Sudoeste 0 -- -- 53
2019-05-10 19:00:00 19.5 16 Sudoeste 35 Oeste 0 -- -- 53
2019-05-10 18:00:00 20.8 17 Sudoeste 39 Sudoeste 0 -- -- 50
2019-05-10 17:00:00 20.8 21 Sudoeste 39 Sudoeste 0 -- -- 47
2019-05-10 16:00:00 20.2 23 Sudoeste 43 Sudoeste 0 -- -- 55
2019-05-10 15:00:00 19.4 23 Sudoeste 41 Sudoeste 0 -- -- 64
2019-05-10 14:00:00 18.6 23 Sudoeste 44 Sudoeste 0 -- -- 67
2019-05-10 13:00:00 18.3 23 Sudoeste 41 Sudoeste 0 -- -- 67
2019-05-10 12:00:00 17.1 24 Sudoeste 39 Sudoeste 0 -- -- 74
2019-05-10 11:00:00 15.8 24 Sudoeste 41 Sudoeste 0 -- -- 81
2019-05-10 10:00:00 14.2 18 Sudoeste 37 Sudoeste 0 -- -- 87
2019-05-10 09:00:00 14.3 15 Sudoeste 32 Sudoeste 0 -- -- 87
2019-05-10 08:00:00 13.1 12 Sudoeste 26 Sur 0 -- -- 90
2019-05-10 07:00:00 12.9 15 Sudoeste 27 Sudoeste 0 -- -- 91
2019-05-10 06:00:00 12.9 12 Sudoeste 31 Sudoeste 0 -- -- 90
2019-05-10 05:00:00 12.9 16 Sudoeste 33 Sudoeste 0 -- -- 92
2019-05-10 04:00:00 13.2 15 Sudoeste 35 Sudoeste 0 -- -- 92
2019-05-10 03:00:00 13.3 14 Sudoeste 29 Sudoeste 0 -- -- 92
2019-05-10 02:00:00 13.8 15 Sudoeste 28 Sudoeste 0 -- -- 93
2019-05-10 01:00:00 13.9 14 Sudoeste 31 Sudoeste 0.2 -- -- 93
2019-05-10 00:00:00 14.1 16 Sudoeste 38 Sudoeste 0 -- -- 92
2019-05-09 23:00:00 14.4 15 Sudoeste 33 Sudoeste 0 -- -- 86
2019-05-09 22:00:00 14.2 17 Sudoeste 39 Sudoeste 0 -- -- 88
2019-05-09 21:00:00 14.9 17 Sudoeste 40 Sudoeste 0 -- -- 85
2019-05-09 20:00:00 15.3 20 Sudoeste 46 Sudoeste 0 -- -- 82
2019-05-09 19:00:00 15.7 26 Sudoeste 50 Sudoeste 0 -- -- 80
2019-05-09 18:00:00 16.6 30 Sudoeste 53 Oeste 0 -- -- 74
2019-05-09 17:00:00 16.5 27 Sudoeste 48 Sudoeste 0 -- -- 71
2019-05-09 16:00:00 17.8 23 Sudoeste 45 Sudoeste 0 -- -- 64
2019-05-09 15:00:00 17.2 25 Sudoeste 48 Sudoeste 0 -- -- 62
2019-05-09 14:00:00 15.6 24 Sudoeste 45 Sudoeste 0 -- -- 64
2019-05-09 13:00:00 17 22 Sudoeste 42 Sudoeste 0 -- -- 55
2019-05-09 12:00:00 15.6 19 Sudoeste 39 Sudoeste 0 -- -- 43
2019-05-09 11:00:00 13.5 18 Sudoeste 30 Sudoeste 0 -- -- 43
2019-05-09 10:00:00 10.7 10 Sudoeste 17 Oeste 0 -- -- 58
2019-05-09 09:00:00 8.5 7 Sudoeste 13 Sudoeste 0 -- -- 74
2019-05-09 08:00:00 5.2 4 Sur 7 Sur 0 -- -- 88
2019-05-09 07:00:00 3.3 4 Sudeste 6 Sudeste 0 -- -- 90
2019-05-09 06:00:00 4 0 Calma 8 Sur 0 -- -- 86
2019-05-09 05:00:00 5 3 Sudoeste 10 Oeste 0 -- -- 84
2019-05-09 04:00:00 6 6 Sudoeste 14 Sudoeste 0 -- -- 80
2019-05-09 03:00:00 6.5 7 Sudoeste 16 Sudoeste 0 -- -- 78
2019-05-09 02:00:00 7.1 4 Sudoeste 14 Sudoeste 0 -- -- 75
2019-05-09 01:00:00 7.7 9 Sudoeste 17 Sudoeste 0 -- -- 73
2019-05-09 00:00:00 8.1 7 Sudoeste 12 Oeste 0 -- -- 68
2019-05-08 23:00:00 9.6 4 Sudoeste 23 Oeste 0 -- -- 61
2019-05-08 22:00:00 11.6 14 Oeste 33 Oeste 0 -- -- 51
2019-05-08 21:00:00 12.9 15 Oeste 40 Oeste 0 -- -- 42
2019-05-08 20:00:00 14.5 20 Oeste 38 Oeste 0 -- -- 41
2019-05-08 19:00:00 16.5 19 Oeste 50 Sudoeste 0 -- -- 38
2019-05-08 18:00:00 16.9 27 Sudoeste 54 Sudoeste 0 -- -- 49
2019-05-08 17:00:00 17.2 29 Sudoeste 59 Sudoeste 0 -- -- 51
2019-05-08 16:00:00 16.6 30 Sudoeste 55 Sudoeste 0 -- -- 50
2019-05-08 15:00:00 16.7 31 Sudoeste 57 Sudoeste 0 -- -- 56
2019-05-08 14:00:00 15.3 31 Sudoeste 55 Sudoeste 0 -- -- 67
2019-05-08 13:00:00 14.4 27 Sudoeste 54 Sudoeste 0 -- -- 77
2019-05-08 12:00:00 13.5 26 Sudoeste 53 Sudoeste 0 -- -- 81
2019-05-08 11:00:00 12.2 24 Sudoeste 58 Sudoeste 0 -- -- 88
2019-05-08 10:00:00 12.6 30 Sudoeste 57 Sudoeste 0 -- -- 85
2019-05-08 09:00:00 12.3 26 Sudoeste 50 Sudoeste 0.2 -- -- 90
2019-05-08 08:00:00 11.6 18 Sudoeste 49 Sudoeste 0 -- -- 88
2019-05-08 07:00:00 11.9 27 Sudoeste 53 Sudoeste 0 -- -- 83
2019-05-08 06:00:00 12.2 18 Sudoeste 43 Sudoeste 0 -- -- 90
2019-05-08 05:00:00 12.3 18 Sudoeste 49 Sudoeste 0 -- -- 89
2019-05-08 04:00:00 12.3 16 Sudoeste 45 Sudoeste 0 -- -- 89
2019-05-08 03:00:00 12.7 15 Sudoeste 31 Sudoeste 0 -- -- 83
2019-05-08 02:00:00 12.7 21 Sudoeste 41 Sudoeste 0 -- -- 82
2019-05-08 01:00:00 12.9 15 Sudoeste 30 Sudoeste 0 -- -- 82
2019-05-08 00:00:00 12.8 15 Sudoeste 37 Sudoeste 0 -- -- 84
2019-05-07 23:00:00 13 14 Sudoeste 32 Sudoeste 0 -- -- 87
2019-05-07 22:00:00 13.4 18 Sudoeste 40 Sudoeste 0 -- -- 88
2019-05-07 21:00:00 15 24 Sudoeste 42 Sudoeste 0 -- -- 80
2019-05-07 20:00:00 15.6 14 Sudoeste 37 Oeste 0 -- -- 70
2019-05-07 19:00:00 15.4 19 Sudoeste 38 Sudoeste 0 -- -- 71
2019-05-07 18:00:00 16.6 19 Sudoeste 40 Sudoeste 0 -- -- 67
2019-05-07 17:00:00 17.5 21 Sudoeste 42 Sudoeste 0 -- -- 60
2019-05-07 16:00:00 18.9 21 Sudoeste 40 Sudoeste 0 -- -- 57
2019-05-07 15:00:00 18.1 17 Sudoeste 44 Sudoeste 0 -- -- 56
2019-05-07 14:00:00 18.1 19 Sudoeste 41 Oeste 0 -- -- 56
2019-05-07 13:00:00 18.4 20 Sudoeste 35 Sudoeste 0 -- -- 54
2019-05-07 12:00:00 17.3 18 Sudoeste 29 Sudoeste 0 -- -- 56
2019-05-07 11:00:00 17.1 15 Sudoeste 25 Sudoeste 0 -- -- 49
2019-05-07 10:00:00 14.1 5 Oeste 13 Sudoeste 0 -- -- 60
2019-05-07 09:00:00 9.3 0 Calma 3 Sudeste 0 -- -- 88
2019-05-07 08:00:00 6 0 Calma 3 Sur 0 -- -- 94
2019-05-07 07:00:00 6.1 2 Sur 5 Sur 0 -- -- 90
2019-05-07 06:00:00 5.8 2 Sur 6 Sur 0 -- -- 91
2019-05-07 05:00:00 6.6 3 Sur 4 Sur 0 -- -- 87
2019-05-07 04:00:00 7.4 0 Calma 4 Sur 0 -- -- 85
2019-05-07 03:00:00 8 3 Sur 6 Sudoeste 0 -- -- 83
2019-05-07 02:00:00 9.9 4 Sur 12 Sudoeste 0 -- -- 78
2019-05-07 01:00:00 11.7 6 Sudoeste 13 Sudoeste 0 -- -- 71
2019-05-07 00:00:00 12.3 5 Sudoeste 11 Sudoeste 0 -- -- 67
2019-05-06 23:00:00 13.8 5 Sudoeste 14 Sudoeste 0 -- -- 59
2019-05-06 22:00:00 15.2 11 Sudoeste 23 Sudoeste 0 -- -- 50
2019-05-06 21:00:00 17.1 12 Sudoeste 30 Sudoeste 0 -- -- 44
2019-05-06 20:00:00 19.3 16 Sudoeste 32 Oeste 0 -- -- 29
2019-05-06 19:00:00 20.9 16 Sudoeste 32 Sudoeste 0 -- -- 26
2019-05-06 18:00:00 21.1 18 Sudoeste 35 Sudoeste 0 -- -- 27
2019-05-06 17:00:00 21.5 15 Oeste 34 Sudoeste 0 -- -- 32
2019-05-06 16:00:00 21.3 16 Oeste 36 Sudoeste 0 -- -- 32
2019-05-06 15:00:00 20.8 16 Oeste 30 Sudoeste 0 -- -- 34
2019-05-06 14:00:00 21.1 13 Sudoeste 24 Sudoeste 0 -- -- 39
2019-05-06 13:00:00 21 6 Sudoeste 17 Sudoeste 0 -- -- 39
2019-05-06 12:00:00 19.8 4 Noroeste 11 Oeste 0 -- -- 42
2019-05-06 11:00:00 18.1 5 Norte 9 Norte 0 -- -- 45
2019-05-06 10:00:00 14.6 4 Norte 6 Norte 0 -- -- 60
2019-05-06 09:00:00 9.5 0 Calma 5 Sur 0 -- -- 72
2019-05-06 08:00:00 4.9 0 Calma 4 Norte 0 -- -- 85
2019-05-06 07:00:00 5.1 0 Calma 5 Sudoeste 0 -- -- 79
2019-05-06 06:00:00 4.7 0 Calma 4 Sudoeste 0 -- -- 81
2019-05-06 05:00:00 5.6 0 Calma 5 Sudoeste 0 -- -- 75
2019-05-06 04:00:00 5.5 2 Sur 6 Sur 0 -- -- 75
2019-05-06 03:00:00 4.7 3 Sur 8 Norte 0 -- -- 75
2019-05-06 02:00:00 5.2 3 Sur 7 Sur 0 -- -- 72
2019-05-06 01:00:00 5.3 3 Sur 6 Sur 0 -- -- 71
2019-05-06 00:00:00 6.4 3 Sur 6 Sudeste 0 -- -- 67
2019-05-05 23:00:00 8.6 3 Sur 6 Sur 0 -- -- 60
2019-05-05 22:00:00 12.4 0 Calma 5 Norte 0 -- -- 49
2019-05-05 21:00:00 16 3 Norte 10 Nordeste 0 -- -- 36
2019-05-05 20:00:00 18.4 5 Norte 15 Norte 0 -- -- 30
2019-05-05 19:00:00 19.4 4 Norte 17 Norte 0 -- -- 30
2019-05-05 18:00:00 19.3 10 Norte 18 Noroeste 0 -- -- 32
2019-05-05 17:00:00 18.9 9 Norte 23 Noroeste 0 -- -- 33
2019-05-05 16:00:00 18.1 5 Norte 18 Norte 0 -- -- 38
2019-05-05 15:00:00 17 9 Nordeste 18 Norte 0 -- -- 42
2019-05-05 14:00:00 15.9 8 Nordeste 18 Norte 0 -- -- 46
2019-05-05 13:00:00 14.3 9 Norte 22 Nordeste 0 -- -- 46
2019-05-05 12:00:00 12.4 13 Nordeste 22 Norte 0 -- -- 53
2019-05-05 11:00:00 10.4 12 Nordeste 19 Nordeste 0 -- -- 60
2019-05-05 10:00:00 8.7 11 Nordeste 22 Norte 0 -- -- 67
2019-05-05 09:00:00 6.6 11 Nordeste 21 Este 0 -- -- 71
2019-05-05 08:00:00 4.3 8 Nordeste 17 Nordeste 0 -- -- 83
2019-05-05 07:00:00 4.1 7 Nordeste 17 Nordeste 0 -- -- 84
2019-05-05 06:00:00 5 9 Nordeste 20 Nordeste 0 -- -- 81
2019-05-05 05:00:00 5.9 8 Nordeste 17 Nordeste 0 -- -- 78
2019-05-05 04:00:00 6.6 7 Nordeste 19 Nordeste 0 -- -- 74
2019-05-05 03:00:00 7.8 12 Nordeste 23 Nordeste 0 -- -- 69
2019-05-05 02:00:00 7.7 6 Nordeste 23 Nordeste 0 -- -- 66
2019-05-05 01:00:00 7.6 5 Sur 7 Sur 0 -- -- 68
2019-05-05 00:00:00 7.9 4 Sur 9 Sudoeste 0 -- -- 67
2019-05-04 23:00:00 8.5 4 Sur 5 Sur 0 -- -- 64
2019-05-04 22:00:00 12.7 0 Calma 6 Norte 0 -- -- 52
2019-05-04 21:00:00 17 4 Norte 15 Norte 0 -- -- 35
2019-05-04 20:00:00 20 4 Noroeste 18 Norte 0 -- -- 29
2019-05-04 19:00:00 20 5 Noroeste 25 Norte 0 -- -- 30
2019-05-04 18:00:00 19.7 5 Norte 22 Norte 0 -- -- 30
2019-05-04 17:00:00 19.1 4 Norte 22 Norte 0 -- -- 29
2019-05-04 16:00:00 18.6 7 Norte 21 Norte 0 -- -- 31
2019-05-04 15:00:00 18.1 9 Norte 25 Norte 0 -- -- 38
2019-05-04 14:00:00 17.2 11 Norte 21 Norte 0 -- -- 39
2019-05-04 13:00:00 16.1 8 Noroeste 17 Noroeste 0 -- -- 40
2019-05-04 12:00:00 14.7 6 Nordeste 14 Nordeste 0 -- -- 44
2019-05-04 11:00:00 13.2 7 Nordeste 13 Norte 0 -- -- 49
2019-05-04 10:00:00 9.8 4 Norte 8 Norte 0 -- -- 59
2019-05-04 09:00:00 4.1 0 Calma 3 Nordeste 0 -- -- 87
2019-05-04 08:00:00 0.1 0 Calma 3 Sur 0 -- -- 94
2019-05-04 07:00:00 0 0 Calma 3 Sur 0 -- -- 91
2019-05-04 06:00:00 0.4 0 Calma 3 Sudoeste 0 -- -- 91
2019-05-04 05:00:00 1.1 2 Sur 3 Sur 0 -- -- 91
2019-05-04 04:00:00 2.4 0 Calma 9 Norte 0 -- -- 84
2019-05-04 03:00:00 4.4 8 Norte 10 Norte 0 -- -- 81
2019-05-04 02:00:00 5.1 0 Calma 6 Nordeste 0 -- -- 77
2019-05-04 01:00:00 5.6 4 Norte 6 Norte 0 -- -- 74
2019-05-04 00:00:00 7.1 2 Sur 6 Sudeste 0 -- -- 68
2019-05-03 23:00:00 9.2 6 Este 13 Este 0 -- -- 59
2019-05-03 22:00:00 10.9 8 Este 21 Nordeste 0 -- -- 53
2019-05-03 21:00:00 13.3 11 Nordeste 25 Nordeste 0 -- -- 46
2019-05-03 20:00:00 15 12 Nordeste 28 Nordeste 0 -- -- 43
2019-05-03 19:00:00 16 12 Nordeste 28 Nordeste 0 -- -- 40
2019-05-03 18:00:00 16.2 15 Nordeste 31 Nordeste 0 -- -- 44
2019-05-03 17:00:00 16.1 13 Nordeste 28 Nordeste 0 -- -- 42
2019-05-03 16:00:00 16.1 13 Nordeste 32 Nordeste 0 -- -- 44
2019-05-03 15:00:00 15.5 11 Nordeste 28 Nordeste 0 -- -- 48
2019-05-03 14:00:00 14.6 15 Nordeste 33 Norte 0 -- -- 46
2019-05-03 13:00:00 14.1 19 Nordeste 30 Nordeste 0 -- -- 47
2019-05-03 12:00:00 13 13 Nordeste 24 Nordeste 0 -- -- 51
2019-05-03 11:00:00 11.3 6 Este 15 Nordeste 0 -- -- 61
2019-05-03 10:00:00 8.4 9 Nordeste 16 Nordeste 0 -- -- 77
2019-05-03 09:00:00 5.4 11 Norte 19 Norte 0 -- -- 88
2019-05-03 08:00:00 1.8 2 Sur 3 Sur 0 -- -- 94
2019-05-03 07:00:00 2.9 0 Calma 9 Norte 0 -- -- 90
2019-05-03 06:00:00 3.5 5 Norte 7 Norte 0 -- -- 88
2019-05-03 05:00:00 4.6 4 Norte 14 Norte 0 -- -- 86
2019-05-03 04:00:00 5.7 2 Norte 13 Norte 0 -- -- 82
2019-05-03 03:00:00 6.8 6 Noroeste 11 Norte 0 -- -- 77
2019-05-03 02:00:00 7.7 4 Norte 9 Nordeste 0 -- -- 74
2019-05-03 01:00:00 9 3 Norte 10 Norte 0 -- -- 73
2019-05-03 00:00:00 10.5 5 Norte 14 Este 0 -- -- 67
2019-05-02 23:00:00 12 4 Este 12 Este 0 -- -- 62
2019-05-02 22:00:00 14.2 4 Nordeste 10 Nordeste 0 -- -- 55
2019-05-02 21:00:00 17 7 Nordeste 17 Norte 0 -- -- 47
2019-05-02 20:00:00 19.5 9 Norte 22 Norte 0 -- -- 40
2019-05-02 19:00:00 20.6 9 Norte 22 Noroeste 0 -- -- 36
2019-05-02 18:00:00 21 12 Norte 26 Norte 0 -- -- 37
2019-05-02 17:00:00 20.7 10 Norte 22 Nordeste 0 -- -- 39
2019-05-02 16:00:00 20.1 12 Nordeste 21 Nordeste 0 -- -- 43
2019-05-02 15:00:00 19.2 12 Norte 21 Norte 0 -- -- 49
2019-05-02 14:00:00 17.8 12 Nordeste 20 Nordeste 0 -- -- 56
2019-05-02 13:00:00 15.8 10 Nordeste 21 Nordeste 0 -- -- 60
2019-05-02 12:00:00 14 10 Nordeste 18 Este 0 -- -- 69
2019-05-02 11:00:00 11.3 7 Nordeste 16 Nordeste 0 -- -- 75
2019-05-02 10:00:00 8.9 9 Nordeste 19 Nordeste 0 -- -- 82
2019-05-02 09:00:00 6.6 8 Nordeste 16 Nordeste 0 -- -- 90
2019-05-02 08:00:00 4.7 2 Nordeste 6 Norte 0 -- -- 96
2019-05-02 07:00:00 4.4 0 Calma 4 Nordeste 0 -- -- 93
2019-05-02 06:00:00 4.9 3 Norte 6 Norte 0 -- -- 93
2019-05-02 05:00:00 5.6 5 Norte 9 Norte 0 -- -- 91
2019-05-02 04:00:00 6.5 5 Nordeste 10 Norte 0 -- -- 88
2019-05-02 03:00:00 7.6 6 Norte 12 Norte 0 -- -- 85
2019-05-02 02:00:00 9.1 3 Norte 9 Norte 0 -- -- 82
2019-05-02 01:00:00 10.7 7 Norte 11 Norte 0 -- -- 78
2019-05-02 00:00:00 11.4 3 Sudoeste 7 Sur 0 -- -- 71
2019-05-01 23:00:00 13.2 3 Sur 6 Sur 0 -- -- 66
2019-05-01 22:00:00 16.5 0 Calma 10 Sur 0 -- -- 54
2019-05-01 21:00:00 18.9 6 Sudeste 24 Sur 0 -- -- 48
2019-05-01 20:00:00 21.7 9 Noroeste 27 Noroeste 0 -- -- 33
2019-05-01 19:00:00 22.2 10 Noroeste 26 Noroeste 0 -- -- 36
2019-05-01 18:00:00 23.1 13 Noroeste 27 Oeste 0 -- -- 34
2019-05-01 17:00:00 23.1 8 Noroeste 28 Noroeste 0 -- -- 34
2019-05-01 16:00:00 22.6 9 Norte 23 Noroeste 0 -- -- 38
2019-05-01 15:00:00 22.2 10 Norte 29 Oeste 0 -- -- 41
2019-05-01 14:00:00 21.9 5 Noroeste 18 Norte 0 -- -- 41
2019-05-01 13:00:00 20.7 9 Norte 19 Norte 0 -- -- 45
2019-05-01 12:00:00 19.9 8 Noroeste 14 Noroeste 0 -- -- 48
2019-05-01 11:00:00 18.5 0 Calma 6 Sur 0 -- -- 52
2019-05-01 10:00:00 15 0 Calma 4 Este 0 -- -- 67
2019-05-01 09:00:00 9.8 0 Calma 3 Sur 0 -- -- 86
2019-05-01 08:00:00 7.9 3 Sur 6 Sudeste 0 -- -- 88
2019-05-01 07:00:00 7.5 0 Calma 4 Sur 0 -- -- 88
2019-05-01 06:00:00 6.9 2 Sur 4 Sur 0 -- -- 87
2019-05-01 05:00:00 7.4 0 Calma 2 Sudeste 0 -- -- 84
2019-05-01 04:00:00 8 3 Sur 8 Sur 0 -- -- 82
2019-05-01 03:00:00 8 3 Sur 5 Sur 0 -- -- 82
2019-05-01 02:00:00 8.4 2 Sur 5 Sudeste 0 -- -- 81
2019-05-01 01:00:00 9.6 0 Calma 4 Sur 0 -- -- 78
2019-05-01 00:00:00 10.7 3 Sur 6 Sur 0 -- -- 74
2019-04-30 23:00:00 12.3 4 Sur 6 Sur 0 -- -- 69
2019-04-30 22:00:00 15.7 3 Sur 6 Norte 0 -- -- 59
2019-04-30 21:00:00 19.1 5 Norte 12 Norte 0 -- -- 45
2019-04-30 20:00:00 21.4 8 Norte 15 Noroeste 0 -- -- 40
2019-04-30 19:00:00 22.2 8 Norte 17 Noroeste 0 -- -- 35
2019-04-30 18:00:00 22.9 4 Nordeste 15 Noroeste 0 -- -- 31
2019-04-30 17:00:00 22.8 8 Norte 19 Noroeste 0 -- -- 36
2019-04-30 16:00:00 22.3 6 Norte 21 Norte 0 -- -- 40
2019-04-30 15:00:00 21.8 4 Nordeste 17 Noroeste 0 -- -- 38
2019-04-30 14:00:00 21.2 4 Norte 13 Norte 0 -- -- 42
2019-04-30 13:00:00 20 5 Norte 12 Nordeste 0 -- -- 52
2019-04-30 12:00:00 17.9 6 Norte 12 Norte 0 -- -- 58
2019-04-30 11:00:00 16.7 5 Norte 12 Norte 0 -- -- 66
2019-04-30 10:00:00 14.7 7 Norte 12 Noroeste 0 -- -- 67
2019-04-30 09:00:00 10.1 0 Calma 3 Norte 0 -- -- 85
2019-04-30 08:00:00 7.6 0 Calma 6 Sur 0 -- -- 87
2019-04-30 07:00:00 8.1 4 Sur 6 Sudeste 0 -- -- 86
2019-04-30 06:00:00 8.1 4 Sur 6 Sur 0 -- -- 84
2019-04-30 05:00:00 8.3 3 Sur 7 Sur 0 -- -- 81
2019-04-30 04:00:00 9.2 3 Sur 17 Noroeste 0 -- -- 77
2019-04-30 03:00:00 9.7 6 Sur 9 Sur 0 -- -- 75
2019-04-30 02:00:00 9.3 4 Sur 8 Sur 0 -- -- 77
2019-04-30 01:00:00 9.5 5 Sur 6 Sur 0 -- -- 78
2019-04-30 00:00:00 10.8 3 Sur 9 Sur 0 -- -- 72
2019-04-29 23:00:00 12 4 Sur 6 Sudeste 0 -- -- 69
2019-04-29 22:00:00 15.9 0 Calma 10 Noroeste 0 -- -- 59
2019-04-29 21:00:00 19.8 4 Noroeste 11 Noroeste 0 -- -- 40
2019-04-29 20:00:00 21.8 6 Noroeste 16 Noroeste 0 -- -- 34
2019-04-29 19:00:00 22.2 10 Norte 18 Norte 0 -- -- 36
2019-04-29 18:00:00 22.6 4 Noroeste 17 Norte 0 -- -- 32
2019-04-29 17:00:00 22.9 4 Oeste 16 Norte 0 -- -- 38
2019-04-29 16:00:00 22.6 4 Sudeste 18 Noroeste 0 -- -- 34
2019-04-29 15:00:00 21.6 4 Norte 19 Noroeste 0 -- -- 35
2019-04-29 14:00:00 20.9 4 Nordeste 15 Norte 0 -- -- 37
2019-04-29 13:00:00 20 7 Nordeste 15 Nordeste 0 -- -- 37
2019-04-29 12:00:00 18.3 8 Norte 14 Norte 0 -- -- 48
2019-04-29 11:00:00 15.7 5 Norte 9 Norte 0 -- -- 62
2019-04-29 10:00:00 12.5 3 Nordeste 6 Norte 0 -- -- 65
2019-04-29 09:00:00 7.2 0 Calma 2 Sur 0 -- -- 92
2019-04-29 08:00:00 4.5 0 Calma 5 Sur 0 -- -- 91
2019-04-29 07:00:00 4.8 3 Sur 5 Sur 0 -- -- 90
2019-04-29 06:00:00 5.4 0 Calma 6 Sur 0 -- -- 89
2019-04-29 05:00:00 5.5 4 Sur 6 Sur 0 -- -- 89
2019-04-29 04:00:00 6 3 Sur 5 Sudoeste 0 -- -- 88
2019-04-29 03:00:00 7.5 2 Sudoeste 6 Sudoeste 0 -- -- 85
2019-04-29 02:00:00 7.8 0 Calma 4 Sur 0 -- -- 81
2019-04-29 01:00:00 8.4 0 Calma 6 Sudeste 0 -- -- 80
2019-04-29 00:00:00 10.8 0 Calma 3 Sur 0 -- -- 72
2019-04-28 23:00:00 13 2 Sudeste 6 Este 0 -- -- 66
2019-04-28 22:00:00 14.4 3 Sur 4 Sudeste 0 -- -- 61
2019-04-28 21:00:00 16.8 5 Norte 10 Norte 0 -- -- 51
2019-04-28 20:00:00 19.6 8 Norte 15 Este 0 -- -- 39
2019-04-28 19:00:00 20.9 8 Norte 17 Nordeste 0 -- -- 34
2019-04-28 18:00:00 21 7 Nordeste 21 Norte 0 -- -- 36
2019-04-28 17:00:00 20.8 11 Norte 20 Norte 0 -- -- 33
2019-04-28 16:00:00 20.4 8 Nordeste 20 Nordeste 0 -- -- 37
2019-04-28 15:00:00 19.8 10 Norte 21 Norte 0 -- -- 39
2019-04-28 14:00:00 19.1 13 Norte 27 Norte 0 -- -- 42
2019-04-28 13:00:00 18.3 13 Nordeste 26 Nordeste 0 -- -- 44
2019-04-28 12:00:00 16.9 13 Nordeste 21 Nordeste 0 -- -- 52
2019-04-28 11:00:00 14.6 8 Nordeste 15 Norte 0 -- -- 70
2019-04-28 10:00:00 10.8 6 Norte 11 Nordeste 0 -- -- 81
2019-04-28 09:00:00 6.6 2 Norte 4 Norte 0 -- -- 98
2019-04-28 08:00:00 3.1 0 Calma 5 Sudeste 0 -- -- 97
2019-04-28 07:00:00 3.1 2 Sur 3 Sudoeste 0 -- -- 95
2019-04-28 06:00:00 3.8 0 Calma 5 Norte 0 -- -- 93
2019-04-28 05:00:00 4.1 3 Sur 5 Sur 0 -- -- 93
2019-04-28 04:00:00 4.8 0 Calma 2 Sur 0 -- -- 91
2019-04-28 03:00:00 5.5 0 Calma 3 Sur 0 -- -- 89
2019-04-28 02:00:00 6.6 0 Calma 2 Noroeste 0 -- -- 86
2019-04-28 01:00:00 8 0 Calma 5 Sur 0 -- -- 83
2019-04-28 00:00:00 9.5 3 Sur 6 Sur 0 -- -- 79
2019-04-27 23:00:00 10.9 0 Calma 4 Sur 0 -- -- 75
2019-04-27 22:00:00 12.9 0 Calma 6 Norte 0 -- -- 67
2019-04-27 21:00:00 15.3 4 Nordeste 13 Norte 0 -- -- 57
2019-04-27 20:00:00 17.5 8 Nordeste 18 Nordeste 0 -- -- 49
2019-04-27 19:00:00 18.4 9 Norte 21 Norte 0 -- -- 46
2019-04-27 18:00:00 18.4 9 Norte 19 Norte 0 -- -- 47
2019-04-27 17:00:00 18.2 7 Norte 21 Noroeste 0 -- -- 47
2019-04-27 16:00:00 17.5 7 Norte 21 Norte 0 -- -- 50
2019-04-27 15:00:00 16.9 9 Nordeste 16 Nordeste 0 -- -- 47
2019-04-27 14:00:00 15.6 8 Nordeste 17 Nordeste 0 -- -- 50
2019-04-27 13:00:00 14.5 8 Nordeste 21 Norte 0 -- -- 55
2019-04-27 12:00:00 12.8 9 Nordeste 17 Nordeste 0 -- -- 63
2019-04-27 11:00:00 11.1 10 Nordeste 17 Norte 0 -- -- 70
2019-04-27 10:00:00 8.6 5 Nordeste 10 Nordeste 0 -- -- 78
2019-04-27 09:00:00 4 2 Norte 3 Norte 0 -- -- 97
2019-04-27 08:00:00 1.3 0 Calma 5 Sur 0 -- -- 97
2019-04-27 07:00:00 1.1 0 Calma 5 Sur 0 -- -- 95
2019-04-27 06:00:00 1.5 0 Calma 4 Sudeste 0 -- -- 95
2019-04-27 05:00:00 1.9 3 Sur 5 Sur 0 -- -- 94
2019-04-27 04:00:00 2.7 3 Sur 6 Sur 0 -- -- 93
2019-04-27 03:00:00 2.8 2 Sur 5 Sudeste 0 -- -- 93
2019-04-27 02:00:00 3.7 4 Sur 6 Sur 0 -- -- 90
2019-04-27 01:00:00 4.3 3 Sur 7 Sur 0 -- -- 89
2019-04-27 00:00:00 4.7 3 Sur 4 Sur 0 -- -- 86
2019-04-26 23:00:00 6.6 3 Sur 7 Noroeste 0 -- -- 81
2019-04-26 22:00:00 8.7 4 Noroeste 9 Noroeste 0 -- -- 71
2019-04-26 21:00:00 10.6 4 Noroeste 15 Noroeste 0 -- -- 64
2019-04-26 20:00:00 12.7 8 Noroeste 17 Noroeste 0 -- -- 52
2019-04-26 19:00:00 13.1 8 Noroeste 21 Oeste 0 -- -- 49
2019-04-26 18:00:00 13.1 10 Noroeste 21 Norte 0 -- -- 51
2019-04-26 17:00:00 12.6 8 Oeste 18 Noroeste 0 -- -- 47
2019-04-26 16:00:00 12.2 6 Noroeste 24 Noroeste 0 -- -- 52
2019-04-26 15:00:00 12.2 7 Noroeste 19 Noroeste 0 -- -- 52
2019-04-26 14:00:00 10.9 11 Noroeste 32 Noroeste 0 -- -- 57
2019-04-26 13:00:00 10.6 12 Oeste 26 Noroeste 0 -- -- 62
2019-04-26 12:00:00 9.8 10 Noroeste 23 Oeste 0 -- -- 61
2019-04-26 11:00:00 8.4 8 Oeste 23 Sudoeste 0 -- -- 71
2019-04-26 10:00:00 7.9 7 Sudoeste 18 Sudoeste 0 -- -- 76
2019-04-26 09:00:00 6.1 7 Sudoeste 15 Sudoeste 0 -- -- 86
2019-04-26 08:00:00 5.8 8 Sudoeste 16 Sudoeste 0 -- -- 86
2019-04-26 07:00:00 6 7 Sudoeste 19 Sudoeste 0 -- -- 85
2019-04-26 06:00:00 5.9 10 Sudoeste 20 Sudoeste 0 -- -- 86
2019-04-26 05:00:00 6 12 Sudoeste 24 Sudoeste 0 -- -- 85
2019-04-26 04:00:00 6.3 12 Sudoeste 22 Sudoeste 0 -- -- 85
2019-04-26 03:00:00 6.4 12 Sudoeste 23 Sudoeste 0 -- -- 85
2019-04-26 02:00:00 6.6 10 Sudoeste 27 Sudoeste 0 -- -- 82
2019-04-26 01:00:00 6.6 11 Sudoeste 28 Sudoeste 0 -- -- 81
2019-04-26 00:00:00 6.4 10 Sudoeste 23 Sudoeste 0 -- -- 80
2019-04-25 23:00:00 6.4 17 Sudoeste 38 Sudoeste 0 -- -- 78
2019-04-25 22:00:00 6.1 17 Sudoeste 40 Oeste 0 -- -- 80
2019-04-25 21:00:00 6.4 11 Sudoeste 36 Noroeste 0 -- -- 82
2019-04-25 20:00:00 7 17 Sudoeste 40 Oeste 0.2 -- -- 81
2019-04-25 19:00:00 8.6 17 Sudoeste 40 Sudoeste 0.4 -- -- 77
2019-04-25 18:00:00 7.5 15 Sudoeste 42 Oeste 1.6 -- -- 88
2019-04-25 17:00:00 8.8 19 Sudoeste 41 Sudoeste 0.2 -- -- 75
2019-04-25 16:00:00 8.7 13 Sudoeste 39 Sudoeste 0 -- -- 74
2019-04-25 15:00:00 7.6 20 Sudoeste 44 Sudoeste 0.4 -- -- 82
2019-04-25 14:00:00 9 22 Sudoeste 46 Sudoeste 0.2 -- -- 66
2019-04-25 13:00:00 8.3 16 Sudoeste 37 Sudoeste 0 -- -- 71
2019-04-25 12:00:00 5.2 14 Sudoeste 32 Noroeste 1.4 -- -- 93
2019-04-25 11:00:00 3.5 10 Noroeste 30 Oeste 1.4 -- -- 92
2019-04-25 10:00:00 4.4 11 Oeste 28 Oeste 1 -- -- 94
2019-04-25 09:00:00 4.1 8 Sudoeste 21 Oeste 0.2 -- -- 91
2019-04-25 08:00:00 4.6 12 Sudoeste 24 Oeste 0 -- -- 91
2019-04-25 07:00:00 3.9 7 Sur 40 Sudoeste 0.2 -- -- 93
2019-04-25 06:00:00 4.5 12 Sudoeste 32 Sudoeste 0.2 -- -- 94
2019-04-25 05:00:00 4.5 19 Sudoeste 37 Sudoeste 2.8 -- -- 90
2019-04-25 04:00:00 5.5 13 Sudoeste 33 Sudoeste 0 -- -- 88
2019-04-25 03:00:00 5.7 14 Sudoeste 41 Sur 0 -- -- 90
2019-04-25 02:00:00 6 13 Sudoeste 31 Sur 0 -- -- 92
2019-04-25 01:00:00 6.8 14 Sudoeste 31 Sudoeste 1 -- -- 92
2019-04-25 00:00:00 7.9 12 Sudoeste 31 Sudoeste 2.4 -- -- 95
2019-04-24 23:00:00 8.1 14 Sudoeste 40 Sudoeste 4.4 -- -- 94
2019-04-24 22:00:00 8.3 15 Sudoeste 36 Sudoeste 0.8 -- -- 90
2019-04-24 21:00:00 8.1 19 Sudoeste 48 Sudoeste 0 -- -- 90
2019-04-24 20:00:00 8.6 23 Sudoeste 60 Sudoeste 0.2 -- -- 88
2019-04-24 19:00:00 8.3 19 Sudoeste 50 Sudoeste 0.2 -- -- 87
2019-04-24 18:00:00 9 27 Sudoeste 60 Sudoeste 0.2 -- -- 85
2019-04-24 17:00:00 10.9 27 Sudoeste 57 Sudoeste 0 -- -- 85
2019-04-24 16:00:00 12.8 32 Sudoeste 65 Sudoeste 0 -- -- 66
2019-04-24 15:00:00 11 39 Sudoeste 63 Sudoeste 0.2 -- -- 81
2019-04-24 14:00:00 11.2 29 Sudoeste 75 Sudoeste 0 -- -- 75
2019-04-24 13:00:00 10.7 25 Sudoeste 59 Sudoeste 0 -- -- 75
2019-04-24 12:00:00 10.3 29 Sudoeste 58 Sudoeste 0 -- -- 76
2019-04-24 11:00:00 7.3 19 Sudoeste 46 Sudoeste 0 -- -- 85
2019-04-24 10:00:00 5.5 22 Sudoeste 46 Sudoeste 0.4 -- -- 84
2019-04-24 09:00:00 4.4 18 Sur 37 Sudoeste 0 -- -- 86
2019-04-24 08:00:00 3.4 17 Sur 35 Sur 0.6 -- -- 90
2019-04-24 07:00:00 3.5 13 Sur 27 Sur 0 -- -- 87
2019-04-24 06:00:00 3.3 9 Sudoeste 19 Sudoeste 0 -- -- 88
2019-04-24 05:00:00 3.1 7 Sudoeste 21 Sudoeste 0 -- -- 92
2019-04-24 04:00:00 3 7 Sudoeste 23 Sudoeste 0.2 -- -- 93
2019-04-24 03:00:00 2.9 10 Sudoeste 29 Sudoeste 0 -- -- 94
2019-04-24 02:00:00 2.7 10 Sudoeste 19 Sudoeste 1 -- -- 97
2019-04-24 01:00:00 1.9 16 Sudoeste 24 Sudoeste 0.8 -- -- 92
2019-04-24 00:00:00 2.5 6 Sudoeste 14 Sur 0 -- -- 93
2019-04-23 23:00:00 2.9 6 Sudoeste 19 Sur 0 -- -- 93
2019-04-23 22:00:00 2.3 10 Sur 28 Sudoeste 0.4 -- -- 95
2019-04-23 21:00:00 3.4 9 Sur 18 Sur 0 -- -- 93
2019-04-23 20:00:00 3.6 5 Sur 14 Sudoeste 2.8 -- -- 94
2019-04-23 19:00:00 4.3 9 Sudoeste 32 Sudoeste 1.2 -- -- 90
2019-04-23 18:00:00 5.8 14 Sudoeste 39 Sudoeste 0.4 -- -- 85
2019-04-23 17:00:00 7.4 23 Sudoeste 41 Sudoeste 0 -- -- 76
2019-04-23 16:00:00 9.1 24 Sudoeste 46 Sudoeste 0 -- -- 65
2019-04-23 15:00:00 9.6 23 Sudoeste 41 Sudoeste 0 -- -- 61
2019-04-23 14:00:00 9.9 17 Sudoeste 35 Sudoeste 0 -- -- 56
2019-04-23 13:00:00 8.5 13 Oeste 35 Oeste 0 -- -- 64
2019-04-23 12:00:00 7.6 19 Sudoeste 36 Sudoeste 0 -- -- 71
2019-04-23 11:00:00 5.7 18 Sudoeste 34 Sudoeste 0.2 -- -- 80
2019-04-23 10:00:00 5.5 10 Sudoeste 26 Sudoeste 0 -- -- 82
2019-04-23 09:00:00 5.3 17 Sudoeste 30 Sudoeste 0 -- -- 87
2019-04-23 08:00:00 5.1 14 Sudoeste 27 Sudoeste 0 -- -- 91
2019-04-23 07:00:00 5.6 12 Sudoeste 24 Sudoeste 1.6 -- -- 90
2019-04-23 06:00:00 6.1 14 Sudoeste 30 Sudoeste 0.6 -- -- 88
2019-04-23 05:00:00 8.8 8 Oeste 31 Sudoeste 0 -- -- 81
2019-04-23 04:00:00 9.5 9 Sudoeste 24 Sur 0 -- -- 65
2019-04-23 03:00:00 9.9 6 Sudoeste 15 Sudoeste 0 -- -- 75
2019-04-23 02:00:00 10.3 9 Sudoeste 26 Oeste 0 -- -- 70
2019-04-23 01:00:00 10.9 11 Sudoeste 31 Sudoeste 0 -- -- 66
2019-04-23 00:00:00 11.1 14 Sudoeste 37 Sudoeste 0.2 -- -- 73